SBCBSBRJ

Guest
Details From SBCB - CABO FRIO
To SBRJ - Santos-Dumont
Flight Number -
Tags generated
Created
Modified
Stats Distance 61 nm / 112 km
Max Altitude 3,300 ft / 1,006 m
Waypoints 3
Social Downloads 4
Likes 0
Share VATSIM

Download

Looking for another format? Having issues loading an existing format? Contact us
Advertisement - Login to hide

Notes

Basic altitude profile: - Ascent Rate: 2500ft/min - Ascent Speed: 250kts - Cruise Altitude: 35000ft - Cruise Speed: 420kts - Descent Rate: 1500ft/min - Descent Speed: 250kts Options: - Use NATs: yes - Use PACOTS: yes - Use low airways: yes - Use high airways: yes

Route

SBCB MRC SBRJ

ID Type Via Altitude Latitude Longitude Leg Dist Tot Dist Heading (true) Name
O SBCB APT - 0 ft / 0 m -22.92168˚ -42.07427˚ - 0 nm - CABO FRIO
MRC VOR - 3,300 ft / 1,006 m -22.96769˚ -42.89131˚ 45 nm 45 nm 266° / 267° MARICA VOR-DME
O SBRJ APT - 0 ft / 0 m -22.91046˚ -43.16313˚ 15 nm 60 nm 283° / 283° Santos-Dumont

Altitude Profile

Advertisement - Login to hide

SBCB

Details ICAO SBCB (CFB)
Name CABO FRIO
Region Brazil
Timezone America/Sao_Paulo (UTC-2.0)
Stats Elevation 14 ft / 4 m (AMSL)
Location -22.921681° -42.074268°
Runways 1
Magnetic Variation 23.136° W

METAR

SBCB 181100Z 05010KT CAVOK 27/23 Q1014

Decode

TAF

Not found

Departure Runways

ID Width Length Bearing (true) Bearing (mag) Surface Threshold Offset Overrun Length
10 98 ft / 30 m 5,574 ft / 1,699 m 75.53° 98.67° Asphalt 0 ft / 0 m 200 ft / 61 m
28 98 ft / 30 m 5,574 ft / 1,699 m 255.53° 278.67° Asphalt 0 ft / 0 m 200 ft / 61 m

SBRJ

Details ICAO SBRJ (SDU)
Name Santos-Dumont
Region Brazil
Timezone Unknown (UTC+0.0)
Stats Elevation 11 ft / 3 m (AMSL)
Location -22.910460° -43.163133°
Runways 2
Magnetic Variation 22.783° W

METAR

SBRJ 181100Z 33009KT CAVOK 34/21 Q1013

Decode

TAF

TAF SBRJ 180200Z 1806/1818 16005KT CAVOK TN25/1808Z TX37/1817Z BECMG 1809/1811 32005KT FEW020 BECMG 1815/1817 10010KT FEW025 FEW030TCU RMK PGU

Decode

Destination Runways

ID Width Length Bearing (true) Bearing (mag) Surface Threshold Offset Overrun Length
02L 98 ft / 30 m 4,154 ft / 1,266 m 358.02° 20.80° Asphalt 0 ft / 0 m 80 ft / 24 m
02R 138 ft / 42 m 4,361 ft / 1,329 m 358.01° 20.79° Asphalt 0 ft / 0 m 80 ft / 24 m
20L 138 ft / 42 m 4,361 ft / 1,329 m 178.01° 200.79° Asphalt 0 ft / 0 m 80 ft / 24 m
20R 98 ft / 30 m 4,154 ft / 1,266 m 178.02° 200.80° Asphalt 0 ft / 0 m 95 ft / 29 m

Approach Navaids

Runway Type Ident Frequency Range Bearing (true) Bearing (mag) Slope Elevation
20L Localiser IRJ 111.10 MHz 18 nm / 33 km 172.42° 195.20° - 11 ft / 3 m (AMSL)